Miami, FL (33176)

8:23 AM EST on February 10, 2016 (GMT -0500)
Killian Court | | Change Station
CLOSE
Current Station
Personal Weather Station
Location: Miami, FL
Elevation: 12 ft
Nearby Weather Stations

Elev 12 ft 25.67 °N, 80.35 °W | Updated 40 seconds ago

Mostly Cloudy
Mostly Cloudy
56.8 °F
Feels Like 56.8 °F
N
2.0
Wind Variable Wind from NNE
Gusts 3.0 mph

Today
High -- | Low -- °F
--% Chance of Precip.
Yesterday
High -- | Low -- °F
Precip. -- in
Pressure 30.20 in
Visibility 10.0 miles
Clouds Few 4000 ft
Dew Point 49 °F
Humidity 74%
Rainfall 0.00 in
Snow Depth Not available.
7:00 AM 6:11 PM
Waxing Crescent, 5% visible
METAR KTMB 101253Z 01005KT 10SM FEW040 13/08 A3020 RMK AO2 SLP226 T01280083
Pressure 30.20 in
Visibility 10.0 miles
Clouds Few 4000 ft
Dew Point 49 °F
Humidity 74%
Rainfall 0.00 in
Snow Depth Not available.
7:00 AM 6:11 PM
Waxing Crescent, 5% visible
METAR KTMB 101253Z 01005KT 10SM FEW040 13/08 A3020 RMK AO2 SLP226 T01280083

10-Day Weather Forecast

Almanac

Astronomy

Feb. 10, 2016 Rise Set
Actual Time
Civil Twilight
Nautical Twilight
Astronomical Twilight
Moon
Length of Visible Light
Length of Day
Tomorrow will be .
, % of the Moon is Illuminated

Today's Extremes

State Highs State Lows

Community

WunderPhotos

Upload Photos

1,891,840 photos uploaded!

WunderBlog® & News

Nearby

Air Quality

  Air Quality AQ Index Pollutant
Not available.

Snow Depth

Station Depth Elevation

Earthquake Activity

City Distance Mag. Time & Date
Minimum magnitude displayed is 2.5.

Coastal Water Temperatures

Place Temperature

Stations

Nearby Weather Stations

Station Location Temp. Windchill Dew Point Humidity Wind Precip. Elev Updated Type
                   

Watches & Warnings

There are currently no watches in effect.